BAW926E LHBP-LWSK
Flight info
| Callsign | BAW926E |
|---|---|
| Flight time | 1h 7m |
| Altitude | 35000 |
| Route | FAHAZ2L FAHAZ DCT KEROP DCT REDVA UL616 KOGAT KOGAT1A |
| Aircraft | A320/M-SDE3FGIJ1KRWXY/SB1 |
Departure
| Time | 2026-05-08 18:52 |
|---|---|
| Airport | Budapest Liszt Ferenc International Airport (LHBP) |
Arrival
| Time | 2026-05-08 19:59 |
|---|---|
| Airport | Skopje International Airport (LWSK) |
| Time | Latitude | Longitude | Altitude | Speed | Heading |
|---|---|---|---|---|---|
| 2026-05-08 18:28 | 47.43334 | 19.25886 | 458 ft | 0 kts | 222° |
| 2026-05-08 18:42 | 47.43340 | 19.25895 | 457 ft | 3 kts | 222° |
| 2026-05-08 18:43 | 47.43353 | 19.25913 | 457 ft | 3 kts | 244° |
| 2026-05-08 18:43 | 47.43358 | 19.25939 | 457 ft | 3 kts | 281° |
| 2026-05-08 18:43 | 47.43352 | 19.25962 | 457 ft | 0 kts | 311° |
| 2026-05-08 18:47 | 47.43356 | 19.25957 | 457 ft | 2 kts | 326° |
| 2026-05-08 18:47 | 47.43374 | 19.25948 | 457 ft | 4 kts | 343° |
| 2026-05-08 18:48 | 47.43406 | 19.25935 | 457 ft | 6 kts | 341° |
| 2026-05-08 18:48 | 47.43446 | 19.25895 | 457 ft | 8 kts | 316° |
| 2026-05-08 18:48 | 47.43468 | 19.25814 | 457 ft | 10 kts | 254° |
| 2026-05-08 18:48 | 47.43420 | 19.25732 | 457 ft | 12 kts | 222° |
| 2026-05-08 18:49 | 47.43354 | 19.25645 | 457 ft | 14 kts | 222° |
| 2026-05-08 18:49 | 47.43305 | 19.25529 | 457 ft | 14 kts | 274° |
| 2026-05-08 18:49 | 47.43333 | 19.25401 | 457 ft | 14 kts | 258° |
| 2026-05-08 18:49 | 47.43271 | 19.25289 | 457 ft | 13 kts | 223° |
| 2026-05-08 18:50 | 47.43209 | 19.25207 | 457 ft | 12 kts | 224° |
| 2026-05-08 18:50 | 47.43141 | 19.25115 | 457 ft | 14 kts | 222° |
| 2026-05-08 18:50 | 47.43101 | 19.24988 | 457 ft | 14 kts | 271° |
| 2026-05-08 18:50 | 47.43137 | 19.24881 | 455 ft | 0 kts | 311° |
| 2026-05-08 18:51 | 47.43146 | 19.24866 | 457 ft | 19 kts | 312° |
| 2026-05-08 18:51 | 47.43454 | 19.24367 | 452 ft | 108 kts | 312° |
| 2026-05-08 18:51 | 47.44109 | 19.23307 | 534 ft | 162 kts | 313° |
| 2026-05-08 18:52 | 47.44875 | 19.22074 | 1303 ft | 165 kts | 313° |
| 2026-05-08 18:52 | 47.45643 | 19.20832 | 2081 ft | 163 kts | 314° |
| 2026-05-08 18:52 | 47.46449 | 19.19529 | 2394 ft | 182 kts | 313° |
| 2026-05-08 18:52 | 47.47359 | 19.18057 | 2654 ft | 206 kts | 313° |
| 2026-05-08 18:53 | 47.48335 | 19.16340 | 3024 ft | 231 kts | 302° |
| 2026-05-08 18:53 | 47.48872 | 19.13981 | 3439 ft | 256 kts | 275° |
| 2026-05-08 18:53 | 47.48609 | 19.11333 | 4189 ft | 267 kts | 248° |
| 2026-05-08 18:53 | 47.47536 | 19.09082 | 5059 ft | 273 kts | 220° |
| 2026-05-08 18:54 | 47.45889 | 19.07652 | 5957 ft | 276 kts | 206° |
| 2026-05-08 18:54 | 47.44155 | 19.06407 | 6868 ft | 278 kts | 206° |
| 2026-05-08 18:54 | 47.42407 | 19.05159 | 7726 ft | 280 kts | 206° |
| 2026-05-08 18:54 | 47.40644 | 19.03898 | 8590 ft | 283 kts | 206° |
| 2026-05-08 18:55 | 47.37063 | 19.01329 | 10247 ft | 288 kts | 207° |
| 2026-05-08 18:55 | 47.35216 | 18.99911 | 10574 ft | 309 kts | 210° |
| 2026-05-08 18:55 | 47.33254 | 18.98374 | 10818 ft | 330 kts | 207° |
| 2026-05-08 18:56 | 47.31139 | 18.96896 | 11340 ft | 339 kts | 205° |
| 2026-05-08 18:56 | 47.28970 | 18.95467 | 12049 ft | 342 kts | 205° |
| 2026-05-08 18:56 | 47.26784 | 18.94049 | 12775 ft | 345 kts | 205° |
| 2026-05-08 18:56 | 47.24586 | 18.92611 | 13506 ft | 347 kts | 205° |
| 2026-05-08 18:57 | 47.22376 | 18.91139 | 14182 ft | 349 kts | 205° |
| 2026-05-08 18:57 | 47.20913 | 18.90154 | 14581 ft | 351 kts | 205° |
| 2026-05-08 18:57 | 47.17916 | 18.88124 | 15372 ft | 356 kts | 206° |
| 2026-05-08 18:57 | 47.15656 | 18.86589 | 15949 ft | 359 kts | 205° |
| 2026-05-08 18:58 | 47.13276 | 18.85407 | 16498 ft | 364 kts | 193° |
| 2026-05-08 18:58 | 47.10737 | 18.85075 | 17059 ft | 370 kts | 179° |
| 2026-05-08 18:58 | 47.08178 | 18.85682 | 17612 ft | 377 kts | 165° |
| 2026-05-08 18:58 | 47.05762 | 18.87225 | 18168 ft | 383 kts | 150° |
| 2026-05-08 18:59 | 47.03557 | 18.89468 | 18676 ft | 387 kts | 146° |
| 2026-05-08 18:59 | 47.01361 | 18.91788 | 19213 ft | 390 kts | 146° |
| 2026-05-08 18:59 | 46.99175 | 18.94089 | 19753 ft | 392 kts | 146° |
| 2026-05-08 18:59 | 46.96951 | 18.96420 | 20291 ft | 394 kts | 146° |
| 2026-05-08 19:00 | 46.95439 | 18.98003 | 20652 ft | 396 kts | 146° |
| 2026-05-08 19:00 | 46.92455 | 19.01119 | 21343 ft | 399 kts | 146° |
| 2026-05-08 19:00 | 46.90188 | 19.03479 | 21848 ft | 401 kts | 146° |
| 2026-05-08 19:00 | 46.87902 | 19.05829 | 22336 ft | 403 kts | 147° |
| 2026-05-08 19:01 | 46.85559 | 19.08105 | 22814 ft | 405 kts | 149° |
| 2026-05-08 19:01 | 46.83168 | 19.10329 | 23303 ft | 407 kts | 149° |
| 2026-05-08 19:01 | 46.80751 | 19.12528 | 23749 ft | 410 kts | 150° |
| 2026-05-08 19:01 | 46.78320 | 19.14731 | 24140 ft | 412 kts | 150° |
| 2026-05-08 19:02 | 46.75883 | 19.16956 | 24526 ft | 414 kts | 150° |
| 2026-05-08 19:02 | 46.73435 | 19.19208 | 24904 ft | 417 kts | 150° |
| 2026-05-08 19:02 | 46.70980 | 19.21477 | 25291 ft | 419 kts | 150° |
| 2026-05-08 19:02 | 46.68513 | 19.23769 | 25660 ft | 421 kts | 150° |
| 2026-05-08 19:03 | 46.66034 | 19.26074 | 26025 ft | 424 kts | 150° |
| 2026-05-08 19:03 | 46.63541 | 19.28386 | 26398 ft | 426 kts | 150° |
| 2026-05-08 19:03 | 46.61033 | 19.30705 | 26766 ft | 428 kts | 150° |
| 2026-05-08 19:03 | 46.58542 | 19.33007 | 27129 ft | 431 kts | 150° |
| 2026-05-08 19:04 | 46.56006 | 19.35347 | 27493 ft | 433 kts | 150° |
| 2026-05-08 19:04 | 46.53451 | 19.37700 | 27861 ft | 435 kts | 150° |
| 2026-05-08 19:04 | 46.50883 | 19.40058 | 28229 ft | 438 kts | 150° |
| 2026-05-08 19:04 | 46.48296 | 19.42431 | 28594 ft | 440 kts | 150° |
| 2026-05-08 19:05 | 46.45701 | 19.44807 | 28949 ft | 442 kts | 150° |
| 2026-05-08 19:05 | 46.43089 | 19.47199 | 29294 ft | 445 kts | 150° |
| 2026-05-08 19:05 | 46.40467 | 19.49601 | 29627 ft | 447 kts | 150° |
| 2026-05-08 19:05 | 46.37834 | 19.52013 | 30060 ft | 447 kts | 150° |
| 2026-05-08 19:06 | 46.35204 | 19.54417 | 30498 ft | 446 kts | 150° |
| 2026-05-08 19:06 | 46.32582 | 19.56810 | 30927 ft | 445 kts | 151° |
| 2026-05-08 19:06 | 46.29962 | 19.59198 | 31343 ft | 445 kts | 151° |
| 2026-05-08 19:06 | 46.27344 | 19.61584 | 31762 ft | 444 kts | 151° |
| 2026-05-08 19:07 | 46.24732 | 19.63961 | 32176 ft | 443 kts | 152° |
| 2026-05-08 19:07 | 46.22126 | 19.66329 | 32600 ft | 443 kts | 152° |
| 2026-05-08 19:07 | 46.19461 | 19.68517 | 33016 ft | 438 kts | 159° |
| 2026-05-08 19:07 | 46.16638 | 19.70099 | 33447 ft | 433 kts | 168° |
| 2026-05-08 19:08 | 46.13726 | 19.71075 | 33880 ft | 428 kts | 173° |
| 2026-05-08 19:08 | 46.10802 | 19.71921 | 34278 ft | 428 kts | 173° |
| 2026-05-08 19:08 | 46.07889 | 19.72773 | 34614 ft | 427 kts | 173° |
| 2026-05-08 19:08 | 46.04969 | 19.73635 | 34919 ft | 428 kts | 172° |
| 2026-05-08 19:09 | 46.02044 | 19.74506 | 35014 ft | 431 kts | 172° |
| 2026-05-08 19:09 | 45.96161 | 19.76252 | 35029 ft | 436 kts | 172° |
| 2026-05-08 19:10 | 45.90216 | 19.77999 | 35028 ft | 436 kts | 172° |
| 2026-05-08 19:10 | 45.84258 | 19.79743 | 35029 ft | 436 kts | 172° |
| 2026-05-08 19:11 | 45.78310 | 19.81481 | 35025 ft | 436 kts | 172° |
| 2026-05-08 19:11 | 45.73362 | 19.82926 | 35025 ft | 436 kts | 172° |
| 2026-05-08 19:12 | 45.67415 | 19.84657 | 35018 ft | 436 kts | 172° |
| 2026-05-08 19:12 | 45.61464 | 19.86381 | 35021 ft | 436 kts | 172° |
| 2026-05-08 19:13 | 45.55505 | 19.88110 | 35016 ft | 436 kts | 172° |
| 2026-05-08 19:13 | 45.49557 | 19.89840 | 35016 ft | 436 kts | 172° |
| 2026-05-08 19:14 | 45.43588 | 19.91561 | 35007 ft | 437 kts | 172° |
| 2026-05-08 19:14 | 45.37669 | 19.93273 | 35004 ft | 437 kts | 172° |
| 2026-05-08 19:15 | 45.31701 | 19.94994 | 35000 ft | 437 kts | 172° |
| 2026-05-08 19:15 | 45.25732 | 19.96700 | 35005 ft | 437 kts | 172° |
| 2026-05-08 19:16 | 45.19760 | 19.98412 | 35003 ft | 438 kts | 172° |
| 2026-05-08 19:16 | 45.13784 | 20.00120 | 35012 ft | 438 kts | 172° |
| 2026-05-08 19:17 | 45.07804 | 20.01829 | 35010 ft | 438 kts | 172° |
| 2026-05-08 19:17 | 45.01866 | 20.03519 | 35020 ft | 438 kts | 172° |
| 2026-05-08 19:18 | 44.95895 | 20.05209 | 35021 ft | 438 kts | 172° |
| 2026-05-08 19:18 | 44.89919 | 20.06898 | 35022 ft | 437 kts | 171° |
| 2026-05-08 19:19 | 44.83951 | 20.08590 | 35023 ft | 437 kts | 171° |
| 2026-05-08 19:19 | 44.77980 | 20.10272 | 35021 ft | 437 kts | 171° |
| 2026-05-08 19:20 | 44.72010 | 20.11945 | 35020 ft | 437 kts | 171° |
| 2026-05-08 19:20 | 44.66045 | 20.13613 | 35019 ft | 437 kts | 171° |
| 2026-05-08 19:21 | 44.60083 | 20.15292 | 35017 ft | 437 kts | 171° |
| 2026-05-08 19:21 | 44.54113 | 20.16970 | 35010 ft | 437 kts | 171° |
| 2026-05-08 19:22 | 44.48142 | 20.18640 | 35013 ft | 438 kts | 171° |
| 2026-05-08 19:22 | 44.42163 | 20.20299 | 35010 ft | 438 kts | 171° |
| 2026-05-08 19:23 | 44.36172 | 20.21956 | 35017 ft | 438 kts | 171° |
| 2026-05-08 19:23 | 44.30184 | 20.23619 | 35015 ft | 439 kts | 171° |
| 2026-05-08 19:24 | 44.24222 | 20.25279 | 35018 ft | 440 kts | 171° |
| 2026-05-08 19:24 | 44.18216 | 20.26947 | 35021 ft | 440 kts | 171° |
| 2026-05-08 19:25 | 44.12197 | 20.28606 | 35023 ft | 441 kts | 171° |
| 2026-05-08 19:25 | 44.06183 | 20.30249 | 35031 ft | 441 kts | 171° |
| 2026-05-08 19:26 | 44.00159 | 20.31898 | 35044 ft | 441 kts | 171° |
| 2026-05-08 19:26 | 43.94119 | 20.33557 | 35052 ft | 442 kts | 171° |
| 2026-05-08 19:27 | 43.88091 | 20.35206 | 35061 ft | 442 kts | 171° |
| 2026-05-08 19:27 | 43.82052 | 20.36856 | 35063 ft | 442 kts | 171° |
| 2026-05-08 19:27 | 43.79034 | 20.37677 | 34817 ft | 441 kts | 171° |
| 2026-05-08 19:28 | 43.76021 | 20.38497 | 34277 ft | 440 kts | 171° |
| 2026-05-08 19:28 | 43.73027 | 20.39313 | 34012 ft | 440 kts | 171° |
| 2026-05-08 19:28 | 43.70023 | 20.40128 | 33708 ft | 442 kts | 171° |
| 2026-05-08 19:28 | 43.66989 | 20.40946 | 33405 ft | 444 kts | 171° |
| 2026-05-08 19:29 | 43.63952 | 20.41766 | 33109 ft | 445 kts | 171° |
| 2026-05-08 19:29 | 43.60910 | 20.42590 | 32822 ft | 446 kts | 171° |
| 2026-05-08 19:29 | 43.57863 | 20.43417 | 32532 ft | 447 kts | 171° |
| 2026-05-08 19:29 | 43.54804 | 20.44249 | 32244 ft | 448 kts | 171° |
| 2026-05-08 19:30 | 43.51746 | 20.45080 | 31966 ft | 447 kts | 171° |
| 2026-05-08 19:30 | 43.48694 | 20.45904 | 31677 ft | 446 kts | 171° |
| 2026-05-08 19:30 | 43.45645 | 20.46728 | 31396 ft | 445 kts | 171° |
| 2026-05-08 19:30 | 43.42610 | 20.47548 | 31126 ft | 443 kts | 171° |
| 2026-05-08 19:31 | 43.39585 | 20.48362 | 30863 ft | 442 kts | 171° |
| 2026-05-08 19:31 | 43.36570 | 20.49170 | 30730 ft | 440 kts | 171° |
| 2026-05-08 19:31 | 43.33558 | 20.49972 | 30769 ft | 441 kts | 171° |
| 2026-05-08 19:32 | 43.27569 | 20.51571 | 30600 ft | 439 kts | 171° |
| 2026-05-08 19:32 | 43.24586 | 20.52373 | 30058 ft | 436 kts | 171° |
| 2026-05-08 19:32 | 43.21622 | 20.53166 | 29449 ft | 433 kts | 171° |
| 2026-05-08 19:32 | 43.18674 | 20.53952 | 28862 ft | 429 kts | 171° |
| 2026-05-08 19:33 | 43.15756 | 20.54729 | 28296 ft | 426 kts | 171° |
| 2026-05-08 19:33 | 43.12855 | 20.55500 | 27738 ft | 422 kts | 171° |
| 2026-05-08 19:33 | 43.09983 | 20.56261 | 27197 ft | 419 kts | 171° |
| 2026-05-08 19:33 | 43.07130 | 20.57016 | 26661 ft | 416 kts | 171° |
| 2026-05-08 19:34 | 43.04301 | 20.57764 | 26137 ft | 413 kts | 171° |
| 2026-05-08 19:34 | 43.01501 | 20.58604 | 25634 ft | 411 kts | 166° |
| 2026-05-08 19:34 | 42.98804 | 20.59889 | 25135 ft | 410 kts | 160° |
| 2026-05-08 19:34 | 42.96151 | 20.61304 | 24660 ft | 407 kts | 161° |
| 2026-05-08 19:35 | 42.93516 | 20.62705 | 24191 ft | 405 kts | 161° |
| 2026-05-08 19:35 | 42.90898 | 20.64093 | 23739 ft | 402 kts | 161° |
| 2026-05-08 19:35 | 42.88298 | 20.65468 | 23233 ft | 400 kts | 161° |
| 2026-05-08 19:35 | 42.85709 | 20.66834 | 22738 ft | 397 kts | 161° |
| 2026-05-08 19:36 | 42.83141 | 20.68188 | 22263 ft | 394 kts | 161° |
| 2026-05-08 19:36 | 42.80594 | 20.69526 | 21785 ft | 391 kts | 161° |
| 2026-05-08 19:36 | 42.78062 | 20.70852 | 21324 ft | 388 kts | 161° |
| 2026-05-08 19:36 | 42.75555 | 20.72167 | 20857 ft | 385 kts | 161° |
| 2026-05-08 19:37 | 42.73067 | 20.73470 | 20391 ft | 382 kts | 161° |
| 2026-05-08 19:37 | 42.70597 | 20.74760 | 19930 ft | 379 kts | 161° |
| 2026-05-08 19:37 | 42.68170 | 20.76029 | 19473 ft | 376 kts | 160° |
| 2026-05-08 19:37 | 42.65737 | 20.77301 | 19007 ft | 373 kts | 160° |
| 2026-05-08 19:38 | 42.63321 | 20.78567 | 18563 ft | 371 kts | 160° |
| 2026-05-08 19:38 | 42.60923 | 20.79825 | 18071 ft | 368 kts | 160° |
| 2026-05-08 19:38 | 42.58545 | 20.81073 | 17575 ft | 365 kts | 160° |
| 2026-05-08 19:38 | 42.56181 | 20.82311 | 17083 ft | 362 kts | 160° |
| 2026-05-08 19:39 | 42.53833 | 20.83537 | 16595 ft | 360 kts | 160° |
| 2026-05-08 19:39 | 42.51502 | 20.84751 | 16130 ft | 357 kts | 160° |
| 2026-05-08 19:39 | 42.49190 | 20.85949 | 15662 ft | 355 kts | 160° |
| 2026-05-08 19:39 | 42.46894 | 20.87138 | 15207 ft | 352 kts | 160° |
| 2026-05-08 19:40 | 42.44615 | 20.88322 | 15054 ft | 351 kts | 160° |
| 2026-05-08 19:40 | 42.42326 | 20.89509 | 15072 ft | 353 kts | 160° |
| 2026-05-08 19:40 | 42.40032 | 20.90699 | 15073 ft | 353 kts | 160° |
| 2026-05-08 19:40 | 42.37735 | 20.91888 | 15074 ft | 353 kts | 160° |
| 2026-05-08 19:41 | 42.35437 | 20.93079 | 15071 ft | 354 kts | 160° |
| 2026-05-08 19:41 | 42.33140 | 20.94270 | 15073 ft | 354 kts | 160° |
| 2026-05-08 19:41 | 42.30841 | 20.95459 | 15069 ft | 354 kts | 160° |
| 2026-05-08 19:41 | 42.28545 | 20.96647 | 15066 ft | 354 kts | 160° |
| 2026-05-08 19:42 | 42.26243 | 20.97840 | 15061 ft | 354 kts | 161° |
| 2026-05-08 19:42 | 42.23947 | 20.99029 | 15061 ft | 354 kts | 161° |
| 2026-05-08 19:42 | 42.21647 | 21.00216 | 15021 ft | 353 kts | 161° |
| 2026-05-08 19:42 | 42.19356 | 21.01396 | 14452 ft | 354 kts | 161° |
| 2026-05-08 19:43 | 42.17049 | 21.02581 | 13838 ft | 356 kts | 161° |
| 2026-05-08 19:43 | 42.14733 | 21.03777 | 13140 ft | 357 kts | 160° |
| 2026-05-08 19:43 | 42.12566 | 21.05421 | 12468 ft | 360 kts | 144° |
| 2026-05-08 19:43 | 42.10818 | 21.07831 | 11818 ft | 363 kts | 127° |
| 2026-05-08 19:44 | 42.09623 | 21.10834 | 11171 ft | 365 kts | 113° |
| 2026-05-08 19:44 | 42.08659 | 21.14001 | 10534 ft | 366 kts | 113° |
| 2026-05-08 19:44 | 42.07693 | 21.17171 | 9917 ft | 366 kts | 113° |
| 2026-05-08 19:44 | 42.06726 | 21.20332 | 9232 ft | 365 kts | 113° |
| 2026-05-08 19:45 | 42.05759 | 21.23488 | 8562 ft | 363 kts | 113° |
| 2026-05-08 19:45 | 42.04794 | 21.26624 | 7905 ft | 362 kts | 113° |
| 2026-05-08 19:45 | 42.03832 | 21.29749 | 7268 ft | 360 kts | 113° |
| 2026-05-08 19:45 | 42.02888 | 21.32813 | 6641 ft | 358 kts | 113° |
| 2026-05-08 19:46 | 42.01941 | 21.35884 | 6132 ft | 351 kts | 113° |
| 2026-05-08 19:46 | 42.01037 | 21.38816 | 5982 ft | 325 kts | 113° |
| 2026-05-08 19:46 | 41.99466 | 21.43900 | 5998 ft | 269 kts | 114° |
| 2026-05-08 19:47 | 41.98741 | 21.46228 | 6003 ft | 265 kts | 114° |
| 2026-05-08 19:47 | 41.98039 | 21.48478 | 6012 ft | 264 kts | 114° |
| 2026-05-08 19:47 | 41.97318 | 21.50793 | 6010 ft | 265 kts | 114° |
| 2026-05-08 19:47 | 41.96611 | 21.53061 | 6004 ft | 259 kts | 114° |
| 2026-05-08 19:48 | 41.95936 | 21.55233 | 6005 ft | 245 kts | 114° |
| 2026-05-08 19:48 | 41.95285 | 21.57328 | 6010 ft | 242 kts | 114° |
| 2026-05-08 19:48 | 41.94635 | 21.59415 | 6010 ft | 242 kts | 114° |
| 2026-05-08 19:48 | 41.93952 | 21.61444 | 5981 ft | 240 kts | 123° |
| 2026-05-08 19:49 | 41.92821 | 21.63038 | 5697 ft | 236 kts | 149° |
| 2026-05-08 19:49 | 41.91311 | 21.63846 | 5386 ft | 233 kts | 167° |
| 2026-05-08 19:49 | 41.89736 | 21.64380 | 5086 ft | 233 kts | 166° |
| 2026-05-08 19:49 | 41.88163 | 21.64921 | 4778 ft | 232 kts | 166° |
| 2026-05-08 19:50 | 41.86599 | 21.65462 | 4494 ft | 231 kts | 166° |
| 2026-05-08 19:50 | 41.85594 | 21.65811 | 4585 ft | 223 kts | 166° |
| 2026-05-08 19:50 | 41.84055 | 21.66345 | 4848 ft | 232 kts | 166° |
| 2026-05-08 19:50 | 41.82482 | 21.66890 | 4968 ft | 234 kts | 166° |
| 2026-05-08 19:51 | 41.80903 | 21.67438 | 4998 ft | 234 kts | 166° |
| 2026-05-08 19:51 | 41.79327 | 21.67984 | 4992 ft | 233 kts | 166° |
| 2026-05-08 19:51 | 41.77759 | 21.68528 | 4710 ft | 232 kts | 166° |
| 2026-05-08 19:51 | 41.75693 | 21.69245 | 4302 ft | 231 kts | 166° |
| 2026-05-08 19:52 | 41.74645 | 21.69608 | 4111 ft | 230 kts | 166° |
| 2026-05-08 19:52 | 41.73202 | 21.70458 | 3824 ft | 228 kts | 138° |
| 2026-05-08 19:52 | 41.72446 | 21.72261 | 3628 ft | 227 kts | 98° |
| 2026-05-08 19:52 | 41.72729 | 21.74318 | 3599 ft | 231 kts | 59° |
| 2026-05-08 19:53 | 41.73947 | 21.75666 | 3594 ft | 227 kts | 18° |
| 2026-05-08 19:53 | 41.75413 | 21.75686 | 3584 ft | 202 kts | 339° |
| 2026-05-08 19:53 | 41.76468 | 21.74594 | 3612 ft | 189 kts | 310° |
| 2026-05-08 19:53 | 41.77349 | 21.73389 | 3620 ft | 179 kts | 314° |
| 2026-05-08 19:54 | 41.78229 | 21.72233 | 3604 ft | 175 kts | 314° |
| 2026-05-08 19:54 | 41.79094 | 21.71095 | 3606 ft | 174 kts | 314° |
| 2026-05-08 19:54 | 41.79958 | 21.69959 | 3601 ft | 174 kts | 314° |
| 2026-05-08 19:54 | 41.80820 | 21.68825 | 3603 ft | 174 kts | 314° |
| 2026-05-08 19:55 | 41.81719 | 21.67746 | 3597 ft | 174 kts | 324° |
| 2026-05-08 19:55 | 41.82795 | 21.66989 | 3493 ft | 175 kts | 338° |
| 2026-05-08 19:55 | 41.83944 | 21.66456 | 3283 ft | 174 kts | 342° |
| 2026-05-08 19:55 | 41.85106 | 21.66008 | 3044 ft | 173 kts | 345° |
| 2026-05-08 19:56 | 41.86215 | 21.65609 | 2791 ft | 156 kts | 346° |
| 2026-05-08 19:56 | 41.87232 | 21.65251 | 2558 ft | 148 kts | 346° |
| 2026-05-08 19:56 | 41.88218 | 21.64907 | 2357 ft | 145 kts | 346° |
| 2026-05-08 19:56 | 41.89191 | 21.64568 | 2133 ft | 144 kts | 347° |
| 2026-05-08 19:57 | 41.90165 | 21.64230 | 1910 ft | 145 kts | 347° |
| 2026-05-08 19:57 | 41.91145 | 21.63889 | 1711 ft | 146 kts | 347° |
| 2026-05-08 19:57 | 41.92123 | 21.63549 | 1488 ft | 144 kts | 347° |
| 2026-05-08 19:57 | 41.93093 | 21.63212 | 1278 ft | 143 kts | 347° |
| 2026-05-08 19:58 | 41.94054 | 21.62877 | 1057 ft | 141 kts | 347° |
| 2026-05-08 19:58 | 41.95003 | 21.62547 | 838 ft | 140 kts | 347° |
| 2026-05-08 19:58 | 41.95803 | 21.62272 | 780 ft | 86 kts | 346° |
| 2026-05-08 19:58 | 41.96308 | 21.62096 | 786 ft | 56 kts | 345° |
| 2026-05-08 19:59 | 41.96484 | 21.62085 | 786 ft | 13 kts | 73° |
| 2026-05-08 19:59 | 41.96518 | 21.62186 | 786 ft | 10 kts | 72° |
| 2026-05-08 19:59 | 41.96519 | 21.62190 | 786 ft | 1 kts | 73° |
| 2026-05-08 19:59 | 41.96522 | 21.62207 | 786 ft | 3 kts | 76° |
| 2026-05-08 20:00 | 41.96519 | 21.62254 | 786 ft | 7 kts | 110° |
| 2026-05-08 20:00 | 41.96470 | 21.62301 | 785 ft | 11 kts | 161° |
| 2026-05-08 20:00 | 41.96389 | 21.62332 | 785 ft | 14 kts | 165° |
| 2026-05-08 20:00 | 41.96285 | 21.62369 | 784 ft | 17 kts | 165° |
| 2026-05-08 20:01 | 41.96167 | 21.62409 | 784 ft | 15 kts | 164° |
| 2026-05-08 20:01 | 41.96133 | 21.62500 | 783 ft | 9 kts | 81° |
| 2026-05-08 20:01 | 41.96141 | 21.62559 | 783 ft | 0 kts | 79° |